createdAt,value
2022-10-16T00:00:24.925Z,100707.06
2022-10-16T00:05:27.697Z,100717.88
2022-10-16T00:10:30.413Z,100714.56
2022-10-16T00:15:37.941Z,100697.00
2022-10-16T00:20:40.812Z,100710.69
2022-10-16T00:26:06.612Z,100730.44
2022-10-16T00:31:11.381Z,100716.53
2022-10-16T00:36:17.723Z,100728.59
2022-10-16T00:41:20.486Z,100733.06
2022-10-16T00:46:32.388Z,100729.94
2022-10-16T00:51:40.452Z,100733.03
2022-10-16T00:56:44.625Z,100720.41
2022-10-16T01:01:47.386Z,100745.16
2022-10-16T01:07:04.761Z,100739.03
2022-10-16T01:12:15.401Z,100737.22
2022-10-16T01:17:44.061Z,100744.56
2022-10-16T01:22:55.465Z,100756.50
2022-10-16T01:28:00.437Z,100750.25
2022-10-16T01:33:14.817Z,100737.16
2022-10-16T01:38:23.429Z,100748.56
2022-10-16T01:43:31.585Z,100749.31
2022-10-16T01:48:35.492Z,100756.13
2022-10-16T01:53:39.977Z,100754.81
2022-10-16T01:58:48.636Z,100766.09
2022-10-16T02:03:55.073Z,100734.72
2022-10-16T02:08:57.673Z,100767.75
2022-10-16T02:14:04.898Z,100762.78
2022-10-16T02:19:08.894Z,100752.53
2022-10-16T02:24:14.474Z,100767.19
2022-10-16T02:29:22.584Z,100770.34
2022-10-16T02:34:27.383Z,100772.75
2022-10-16T02:39:30.911Z,100758.53
2022-10-16T02:44:33.524Z,100754.06
2022-10-16T02:49:36.046Z,100775.56
2022-10-16T02:54:38.618Z,100784.81
2022-10-16T02:59:41.208Z,100778.59
2022-10-16T03:04:43.761Z,100781.22
2022-10-16T03:09:46.297Z,100762.47
2022-10-16T03:14:49.430Z,100777.22
2022-10-16T03:19:52.185Z,100795.50
2022-10-16T03:24:54.758Z,100803.69
2022-10-16T03:29:57.310Z,100798.34
2022-10-16T03:34:59.918Z,100797.25
2022-10-16T03:40:02.464Z,100795.38
2022-10-16T03:45:06.644Z,100800.69
2022-10-16T03:50:09.820Z,100804.78
2022-10-16T03:55:12.584Z,100810.72
2022-10-16T04:00:15.284Z,100804.06
2022-10-16T04:05:17.995Z,100810.03
2022-10-16T04:10:20.637Z,100819.63
2022-10-16T04:15:24.443Z,100786.59
2022-10-16T04:20:27.276Z,100805.28
2022-10-16T04:25:30.043Z,100810.63
2022-10-16T04:30:34.582Z,100812.00
2022-10-16T04:35:37.129Z,100822.31
2022-10-16T04:40:39.711Z,100805.25
2022-10-16T04:45:42.405Z,100827.34
2022-10-16T04:50:45.058Z,100827.72
2022-10-16T04:55:47.732Z,100820.44
2022-10-16T05:00:50.911Z,100821.06
2022-10-16T05:05:53.854Z,100810.66
2022-10-16T05:10:56.401Z,100818.44
2022-10-16T05:15:58.991Z,100804.75
2022-10-16T05:21:01.659Z,100828.03
2022-10-16T05:26:04.496Z,100832.94
2022-10-16T05:31:08.272Z,100829.19
2022-10-16T05:36:12.087Z,100835.50
2022-10-16T05:41:15.234Z,100837.53
2022-10-16T05:46:18.059Z,100823.66
2022-10-16T05:51:20.610Z,100803.72
2022-10-16T05:56:23.228Z,100843.22
2022-10-16T06:01:26.228Z,100843.53
2022-10-16T06:06:30.652Z,100844.28
2022-10-16T06:11:34.465Z,100820.56
2022-10-16T06:16:38.675Z,100843.53
2022-10-16T06:21:41.254Z,100844.06
2022-10-16T06:26:44.108Z,100839.09
2022-10-16T06:31:46.686Z,100852.69
2022-10-16T06:36:49.233Z,100845.03
2022-10-16T06:41:52.097Z,100862.75
2022-10-16T06:46:54.932Z,100808.16
2022-10-16T06:51:57.614Z,100849.50
2022-10-16T06:57:01.136Z,100857.66
2022-10-16T07:02:03.727Z,100821.78
2022-10-16T07:07:08.659Z,100854.13
2022-10-16T07:12:12.153Z,100832.03
2022-10-16T07:17:14.978Z,100853.00
2022-10-16T07:22:17.647Z,100844.56
2022-10-16T07:27:23.268Z,100861.22
2022-10-16T07:32:27.062Z,100862.19
2022-10-16T07:37:29.866Z,100863.25
2022-10-16T07:42:32.652Z,100858.16
2022-10-16T07:47:35.237Z,100860.03
2022-10-16T07:52:37.772Z,100856.03
2022-10-16T07:57:40.340Z,100851.91
2022-10-16T08:02:42.949Z,100859.63
2022-10-16T08:07:50.768Z,100852.81
2022-10-16T08:12:54.041Z,100854.91
2022-10-16T08:18:04.513Z,100848.06
2022-10-16T08:23:07.966Z,100829.16
2022-10-16T08:28:11.951Z,100854.47
2022-10-16T08:33:14.918Z,100848.47
2022-10-16T08:38:17.644Z,100827.84
2022-10-16T08:44:01.774Z,100850.41
2022-10-16T08:49:08.020Z,100846.22
2022-10-16T08:54:27.865Z,100844.59
2022-10-16T08:59:30.494Z,100826.47
2022-10-16T09:04:56.776Z,100835.19
2022-10-16T09:10:05.255Z,100832.66
2022-10-16T09:15:16.729Z,100840.53
2022-10-16T09:20:40.394Z,100826.66
2022-10-16T09:25:46.651Z,100842.34
2022-10-16T09:30:50.841Z,100803.34
2022-10-16T09:35:56.927Z,100824.13
2022-10-16T09:41:03.492Z,100831.00
2022-10-16T09:46:09.862Z,100820.81
2022-10-16T09:51:22.926Z,100800.13
2022-10-16T09:56:31.897Z,100799.25
2022-10-16T10:01:45.553Z,100802.72
2022-10-16T10:06:59.241Z,100796.72
2022-10-16T10:17:15.050Z,100801.00
2022-10-16T10:22:43.232Z,100806.19
2022-10-16T10:28:28.289Z,100798.41
2022-10-16T10:33:39.918Z,100808.81
2022-10-16T10:38:57.706Z,100796.69
2022-10-16T10:44:15.503Z,100802.72
2022-10-16T10:49:46.673Z,100779.38
2022-10-16T10:55:03.133Z,100788.91
2022-10-16T11:00:25.964Z,100781.94
2022-10-16T11:05:32.254Z,100790.66
2022-10-16T11:10:47.913Z,100773.34
2022-10-16T11:15:54.921Z,100771.63
2022-10-16T11:21:03.731Z,100776.81
2022-10-16T11:26:16.517Z,100768.16
2022-10-16T11:31:28.017Z,100777.69
2022-10-16T11:36:42.987Z,100768.16
2022-10-16T11:41:54.488Z,100773.34
2022-10-16T11:47:33.793Z,100771.59
2022-10-16T11:52:37.613Z,100764.69
2022-10-16T11:57:46.868Z,100756.91
2022-10-16T12:02:55.276Z,100770.75
2022-10-16T12:08:08.717Z,100769.00
2022-10-16T12:13:31.356Z,100761.25
2022-10-16T12:18:34.022Z,100758.63
2022-10-16T12:23:48.168Z,100747.38
2022-10-16T12:28:52.825Z,100753.44
2022-10-16T12:34:04.372Z,100742.22
2022-10-16T12:39:07.012Z,100743.91
2022-10-16T12:44:35.545Z,100749.09
2022-10-16T12:49:42.215Z,100747.34
2022-10-16T12:54:44.866Z,100735.25
2022-10-16T12:59:52.984Z,100752.53
2022-10-16T13:05:17.197Z,100755.16
2022-10-16T13:10:24.620Z,100752.56
2022-10-16T13:15:36.855Z,100752.50
2022-10-16T13:20:45.420Z,100750.78
2022-10-16T13:26:27.931Z,100743.00
2022-10-16T13:31:32.869Z,100743.81
2022-10-16T13:36:44.319Z,100749.88
2022-10-16T13:41:46.943Z,100745.50
2022-10-16T13:47:01.477Z,100728.16
2022-10-16T13:52:03.996Z,100745.44
2022-10-16T13:57:26.407Z,100742.75
2022-10-16T14:02:38.389Z,100733.91
2022-10-16T14:07:41.800Z,100758.09
2022-10-16T14:12:44.402Z,100746.81
2022-10-16T14:17:51.690Z,100724.22
2022-10-16T14:23:23.296Z,100748.41
2022-10-16T14:28:25.877Z,100723.13
2022-10-16T14:33:31.506Z,100747.34
2022-10-16T14:38:35.000Z,100746.34
2022-10-16T14:43:38.688Z,100748.88
2022-10-16T14:48:51.377Z,100746.19
2022-10-16T14:53:57.805Z,100758.22
2022-10-16T14:59:03.598Z,100753.81
2022-10-16T15:04:06.234Z,100761.47
2022-10-16T15:09:09.069Z,100753.47
2022-10-16T15:19:17.952Z,100764.69
2022-10-16T15:24:21.613Z,100767.16
2022-10-16T15:29:24.409Z,100752.28
2022-10-16T15:34:26.991Z,100756.59
2022-10-16T15:39:29.621Z,100754.72
2022-10-16T15:44:32.164Z,100725.22
2022-10-16T15:49:35.313Z,100759.03
2022-10-16T15:54:37.848Z,100757.19
2022-10-16T15:59:40.426Z,100758.00
2022-10-16T16:04:44.304Z,100745.81
2022-10-16T16:09:47.469Z,100748.38
2022-10-16T16:14:50.230Z,100755.28
2022-10-16T16:19:53.012Z,100738.56
2022-10-16T16:24:55.641Z,100746.38
2022-10-16T16:29:58.322Z,100758.50
2022-10-16T16:35:00.954Z,100767.03
2022-10-16T16:40:03.704Z,100740.06
2022-10-16T16:45:07.067Z,100757.50
2022-10-16T16:50:09.898Z,100731.44
2022-10-16T16:55:12.564Z,100748.72
2022-10-16T17:00:15.602Z,100752.94
2022-10-16T17:05:20.025Z,100762.34
2022-10-16T17:10:22.769Z,100765.66
2022-10-16T17:15:25.357Z,100756.06
2022-10-16T17:20:27.851Z,100756.03
2022-10-16T17:25:31.988Z,100755.13
2022-10-16T17:30:37.345Z,100771.41
2022-10-16T17:35:44.885Z,100767.88
2022-10-16T17:40:47.634Z,100754.81
2022-10-16T17:45:50.449Z,100766.94
2022-10-16T17:50:53.017Z,100761.41
2022-10-16T17:55:59.447Z,100745.81
2022-10-16T18:01:02.959Z,100763.88
2022-10-16T18:06:05.717Z,100760.34
2022-10-16T18:11:09.912Z,100761.25
2022-10-16T18:16:15.065Z,100768.78
2022-10-16T18:21:20.211Z,100771.16
2022-10-16T18:26:23.633Z,100774.63
2022-10-16T18:31:39.071Z,100765.19
2022-10-16T18:36:45.029Z,100738.13
2022-10-16T18:41:51.529Z,100770.22
2022-10-16T18:46:59.264Z,100766.78
2022-10-16T18:52:03.377Z,100764.94
2022-10-16T18:57:06.334Z,100763.41
2022-10-16T19:02:09.580Z,100754.66
2022-10-16T19:07:12.193Z,100748.81
2022-10-16T19:12:14.763Z,100745.28
2022-10-16T19:17:17.311Z,100743.66
2022-10-16T19:22:31.226Z,100744.53
2022-10-16T19:27:33.928Z,100709.81
2022-10-16T19:32:36.693Z,100731.53
2022-10-16T19:37:39.399Z,100747.75
2022-10-16T19:42:45.146Z,100725.13
2022-10-16T19:47:47.813Z,100745.19
2022-10-16T19:52:50.450Z,100763.00
2022-10-16T19:57:52.980Z,100754.03
2022-10-16T20:02:55.553Z,100758.34
2022-10-16T20:07:58.140Z,100755.75
2022-10-16T20:13:00.701Z,100751.25
2022-10-16T20:18:03.230Z,100751.19
2022-10-16T20:23:06.924Z,100746.00
2022-10-16T20:28:12.464Z,100739.56
2022-10-16T20:33:16.158Z,100736.06
2022-10-16T20:38:19.147Z,100720.34
2022-10-16T20:43:21.796Z,100742.66
2022-10-16T20:48:24.382Z,100747.03
2022-10-16T20:53:27.230Z,100740.19
2022-10-16T20:58:29.823Z,100735.91
2022-10-16T21:03:32.356Z,100730.63
2022-10-16T21:08:36.665Z,100732.22
2022-10-16T21:13:39.889Z,100724.41
2022-10-16T21:18:44.704Z,100723.03
2022-10-16T21:23:48.657Z,100721.22
2022-10-16T21:28:51.261Z,100725.50
2022-10-16T21:33:55.413Z,100717.81
2022-10-16T21:39:08.177Z,100720.72
2022-10-16T21:44:11.121Z,100727.56
2022-10-16T21:49:19.496Z,100736.28
2022-10-16T21:54:24.103Z,100736.44
2022-10-16T21:59:26.680Z,100738.47
2022-10-16T22:04:29.205Z,100727.47
2022-10-16T22:09:31.880Z,100721.94
2022-10-16T22:14:34.520Z,100723.59
2022-10-16T22:19:37.183Z,100732.84
2022-10-16T22:24:39.705Z,100731.81
2022-10-16T22:29:42.307Z,100737.03
2022-10-16T22:34:45.205Z,100726.84
2022-10-16T22:39:47.737Z,100724.16
2022-10-16T22:44:50.227Z,100725.66
2022-10-16T22:49:53.048Z,100727.34
2022-10-16T22:54:55.608Z,100705.81
2022-10-16T22:59:58.170Z,100709.41
2022-10-16T23:05:00.777Z,100715.50
2022-10-16T23:10:08.508Z,100711.25
2022-10-16T23:15:11.083Z,100697.72
2022-10-16T23:20:13.608Z,100694.94
2022-10-16T23:25:16.232Z,100696.72
2022-10-16T23:30:18.766Z,100686.56
2022-10-16T23:35:21.451Z,100686.72
2022-10-16T23:40:24.391Z,100687.69
2022-10-16T23:45:26.978Z,100678.03
2022-10-16T23:50:30.524Z,100680.81
